Time;durP1;ratioP1;P1;durP2;ratioP2;P2;SDS_P1;SDS_P2;PMS_P1;PMS_P2;Temp;Humidity;BMP_temperature;BMP_pressure;BME280_temperature;BME280_humidity;BME280_pressure;Samples;Min_cycle;Max_cycle;Signal;HPM_P1;HPM_P2
2022/08/11 05:34:56;;;;;;;6.78;4.40;;;;;;;14.55;100.00;98579.50;1870972;75;22722;-61
2022/08/11 05:37:33;;;;;;;6.87;4.20;;;;;;;14.61;100.00;98582.87;1819342;77;20965;-60
2022/08/11 05:57:21;;;;;;;6.15;2.90;;;;;;;16.38;99.91;98582.29;1828814;77;20916;-60
2022/08/11 05:59:48;;;;;;;5.97;3.00;;;;;;;16.58;98.82;98582.86;1834694;77;20984;-60
2022/08/11 06:02:14;;;;;;;7.83;2.58;;;;;;;16.70;96.98;98585.75;1827496;77;21035;-60
2022/08/11 06:04:41;;;;;;;3.60;2.55;;;;;;;16.75;95.74;98586.92;1831234;77;20923;-60
2022/08/11 06:07:10;;;;;;;5.17;2.90;;;;;;;16.79;95.39;98582.50;1844249;77;21500;-60
2022/08/11 06:09:49;;;;;;;4.85;2.80;;;;;;;16.86;94.92;98582.83;1848800;77;21025;-60
2022/08/11 06:12:19;;;;;;;7.90;3.10;;;;;;;16.93;94.37;98586.62;1853725;77;20868;-60
2022/08/11 06:14:47;;;;;;;5.33;3.15;;;;;;;17.00;93.47;98591.59;1841403;77;20979;-61
2022/08/11 06:17:15;;;;;;;4.00;2.65;;;;;;;17.00;92.93;98586.19;1824263;77;21672;-57
2022/08/11 06:19:47;;;;;;;3.62;2.77;;;;;;;16.99;92.45;98592.70;1726987;80;21796;-61
2022/08/11 06:22:20;;;;;;;9.33;3.35;;;;;;;17.00;92.08;98593.72;1787508;78;20923;-61
2022/08/11 06:25:01;;;;;;;11.93;3.70;;;;;;;16.98;91.39;98593.83;1748005;80;21061;-60
2022/08/11 06:27:29;;;;;;;9.10;3.20;;;;;;;16.95;90.28;98594.45;1750058;80;20969;-58
2022/08/11 06:29:56;;;;;;;8.48;3.00;;;;;;;16.91;90.43;98593.50;1763692;79;20892;-59
2022/08/11 06:32:29;;;;;;;6.58;2.92;;;;;;;16.88;90.54;98588.16;1775629;79;20959;-59
2022/08/11 06:35:06;;;;;;;4.55;3.10;;;;;;;16.88;90.51;98590.87;1738892;81;20928;-60
2022/08/11 06:37:55;;;;;;;8.90;3.47;;;;;;;16.89;90.45;98595.15;1735922;82;20845;-59
2022/08/11 06:41:28;;;;;;;5.67;2.90;;;;;;;16.94;90.61;98585.53;1744878;80;21545;-59
2022/08/11 06:43:22;;;;;;;8.08;3.22;;;;;;;17.01;89.81;98583.15;1787482;80;20920;-60
2022/08/11 06:46:05;;;;;;;4.12;2.85;;;;;;;17.08;89.42;98584.83;1770381;80;21653;-63
2022/08/11 06:48:32;;;;;;;7.08;3.22;;;;;;;17.22;88.86;98581.95;1757897;80;21525;-57
2022/08/11 06:51:12;;;;;;;5.78;2.98;;;;;;;17.43;88.64;98576.13;1758190;80;20960;-61
2022/08/11 06:53:50;;;;;;;6.75;3.22;;;;;;;17.65;88.04;98575.97;1772184;79;21041;-61
2022/08/11 07:02:20;;;;;;;9.08;3.90;;;;;;;18.19;85.11;98563.52;1759904;80;20944;-60
2022/08/11 07:04:55;;;;;;;4.97;3.00;;;;;;;18.37;84.72;98572.39;1765734;81;20889;-59
2022/08/11 07:15:40;;;;;;;4.20;2.95;;;;;;;18.61;83.35;98567.16;1769674;80;20912;-61
2022/08/11 07:17:13;;;;;;;5.10;2.37;;;;;;;18.68;82.60;98572.86;1810864;79;21351;-59
2022/08/11 07:31:06;;;;;;;7.12;3.00;;;;;;;18.94;81.37;98568.05;1808174;77;20865;-60
2022/08/11 07:33:49;;;;;;;7.20;2.35;;;;;;;19.05;81.13;98571.19;1833375;77;20992;-61
2022/08/11 07:36:16;;;;;;;3.45;2.12;;;;;;;19.10;80.26;98562.84;1830594;77;20872;-62
2022/08/11 07:38:50;;;;;;;3.25;2.50;;;;;;;19.13;80.07;98562.96;1854992;77;20954;-62
2022/08/11 07:41:19;;;;;;;5.58;2.17;;;;;;;19.20;79.87;98561.62;1855050;77;21182;-59
2022/08/11 07:43:49;;;;;;;4.87;2.45;;;;;;;19.24;78.74;98559.84;1854859;77;20863;-59
2022/08/11 07:54:36;;;;;;;4.80;2.22;;;;;;;19.50;77.57;98553.66;1827571;77;21092;-60
2022/08/11 08:19:15;;;;;;;7.85;2.00;;;;;;;20.49;72.18;98574.67;1746550;81;21379;-60
2022/08/11 08:21:41;;;;;;;3.45;2.00;;;;;;;20.57;72.36;98570.47;1766201;80;21038;-61
2022/08/11 08:24:08;;;;;;;5.22;2.05;;;;;;;20.69;71.35;98568.30;1751898;80;21010;-62
2022/08/11 08:32:07;;;;;;;6.42;2.20;;;;;;;20.93;70.12;98566.34;1746133;82;20986;-59
2022/08/11 08:34:35;;;;;;;4.72;2.20;;;;;;;21.09;70.51;98560.98;1750498;80;21447;-60
2022/08/11 08:37:01;;;;;;;4.97;2.00;;;;;;;21.34;69.84;98562.48;1761525;80;20963;-61
2022/08/11 08:39:30;;;;;;;7.62;2.72;;;;;;;21.60;68.05;98562.83;1776370;80;20860;-61
2022/08/11 08:41:57;;;;;;;7.22;2.47;;;;;;;21.79;65.67;98560.23;1769923;80;21399;-61
2022/08/11 08:44:24;;;;;;;6.60;2.60;;;;;;;21.95;66.27;98562.22;1775658;80;20911;-61
2022/08/11 08:46:54;;;;;;;5.45;2.35;;;;;;;22.08;66.02;98556.89;1776631;80;21108;-61
2022/08/11 08:49:34;;;;;;;11.53;2.20;;;;;;;22.20;65.61;98563.06;1760167;80;21513;-62
2022/08/11 08:52:03;;;;;;;3.30;2.22;;;;;;;22.30;64.77;98559.02;1746116;82;21423;-60
2022/08/11 08:54:35;;;;;;;4.40;2.27;;;;;;;22.34;64.83;98559.88;1747023;80;21540;-62
2022/08/11 08:57:04;;;;;;;5.37;2.08;;;;;;;22.43;64.59;98557.76;1765835;79;21068;-62
2022/08/11 08:59:36;;;;;;;6.75;2.40;;;;;;;22.45;64.10;98562.28;1768870;80;21216;-62
2022/08/11 09:02:04;;;;;;;6.45;1.98;;;;;;;22.41;64.06;98566.88;1757426;80;21098;-60
2022/08/11 09:04:31;;;;;;;9.00;2.42;;;;;;;22.37;64.16;98561.35;1761405;80;20994;-61
2022/08/11 09:07:02;;;;;;;5.53;2.10;;;;;;;22.35;64.32;98554.66;1768709;80;21082;-61
2022/08/11 09:09:30;;;;;;;3.45;2.00;;;;;;;22.26;63.86;98554.82;1751120;81;21575;-61
2022/08/11 09:11:57;;;;;;;4.33;2.22;;;;;;;22.15;63.50;98552.98;1751096;82;22011;-60
2022/08/11 09:14:59;;;;;;;5.62;1.80;;;;;;;22.07;64.96;98566.23;1779065;80;21534;-61
2022/08/11 09:16:57;;;;;;;7.43;2.00;;;;;;;22.04;64.79;98555.45;1813409;77;21023;-61
2022/08/11 09:19:24;;;;;;;3.20;1.80;;;;;;;22.12;64.35;98553.11;1814787;77;21762;-62
2022/08/11 09:27:21;;;;;;;2.45;1.70;;;;;;;22.34;64.54;98538.05;1828947;77;20160;-61
2022/08/11 09:29:48;;;;;;;3.37;1.70;;;;;;;22.54;64.65;98545.74;1821190;77;21047;-61
2022/08/11 09:32:14;;;;;;;4.42;1.60;;;;;;;22.72;64.85;98544.23;1816388;77;21123;-61
2022/08/11 09:34:40;;;;;;;3.02;1.80;;;;;;;22.92;63.69;98534.34;1762276;79;21058;-61
2022/08/11 09:45:26;;;;;;;2.08;1.35;;;;;;;23.34;59.64;98537.14;1756440;80;20943;-61
2022/08/11 09:47:54;;;;;;;2.10;1.30;;;;;;;23.39;59.40;98537.48;1775728;80;21466;-60
2022/08/11 09:50:20;;;;;;;2.42;1.50;;;;;;;23.36;58.61;98534.10;1776368;80;21760;-60
2022/08/11 09:52:49;;;;;;;2.58;1.42;;;;;;;23.23;58.02;98530.69;1776499;80;20877;-59
2022/08/11 09:55:16;;;;;;;3.80;1.60;;;;;;;23.14;58.29;98526.81;1776472;79;20959;-60
2022/08/11 10:00:36;;;;;;;3.02;1.47;;;;;;;22.83;57.84;98526.92;1776583;80;21003;-62
2022/08/11 10:03:11;;;;;;;2.60;1.52;;;;;;;22.82;59.33;98525.33;1777215;79;21122;-61
2022/08/11 10:08:27;;;;;;;4.45;1.72;;;;;;;23.01;57.14;98525.35;1764254;80;20974;-61
2022/08/11 10:10:57;;;;;;;6.25;1.50;;;;;;;22.95;56.10;98515.08;1821306;78;20832;-61
2022/08/11 10:13:32;;;;;;;2.98;1.57;;;;;;;22.82;55.15;98518.50;1825399;78;21498;-61
2022/08/11 10:16:02;;;;;;;3.02;1.42;;;;;;;22.77;56.89;98511.19;1824139;78;21093;-61
2022/08/11 10:18:48;;;;;;;4.28;1.60;;;;;;;22.69;57.31;98521.16;1846232;77;20859;-60
2022/08/11 10:21:35;;;;;;;4.97;1.40;;;;;;;22.53;56.79;98520.38;1845199;77;20920;-61
2022/08/11 10:26:59;;;;;;;2.55;1.67;;;;;;;22.25;58.26;98516.98;1824655;78;20960;-60
2022/08/11 10:34:49;;;;;;;4.00;1.40;;;;;;;22.12;58.73;98515.48;1840032;77;21430;-59
2022/08/11 10:37:23;;;;;;;4.10;1.65;;;;;;;22.14;58.91;98500.95;1842850;77;20892;-60
2022/08/11 10:39:51;;;;;;;4.15;1.60;;;;;;;22.11;59.33;98495.62;1827457;78;21021;-61
2022/08/11 10:47:33;;;;;;;5.10;1.60;;;;;;;22.19;59.26;98502.02;1826975;78;20966;-60
2022/08/11 10:47:37;;;;;;;3.12;1.55;;;;;;;22.28;59.38;98505.38;1823217;78;21418;-62
2022/08/11 10:58:51;;;;;;;3.08;1.60;;;;;;;22.64;59.53;98498.22;1807614;77;20963;-61
2022/08/11 11:01:24;;;;;;;2.55;1.57;;;;;;;22.68;59.51;98496.95;1738861;80;21433;-61
2022/08/11 11:03:58;;;;;;;3.45;1.65;;;;;;;22.78;59.35;98493.06;1777185;80;21427;-61
2022/08/11 11:06:32;;;;;;;;;;;;;;;23.00;58.96;98482.81;1760152;80;20950;-60
2022/08/11 11:09:14;;;;;;;2.95;1.37;;;;;;;23.30;58.47;98476.73;1762620;81;21198;-61
2022/08/11 11:17:55;;;;;;;3.83;1.40;;;;;;;23.75;55.71;98475.45;1750312;79;21585;-58
2022/08/11 11:20:38;;;;;;;2.47;1.20;;;;;;;23.78;53.77;98467.89;1790430;79;20916;-62
2022/08/11 11:26:54;;;;;;;1.10;1.00;;;;;;;23.96;52.29;98458.02;1781171;79;21098;-61
2022/08/11 11:29:54;;;;;;;2.20;1.22;;;;;;;24.11;51.31;98457.13;1763026;80;21063;-59
2022/08/11 11:32:32;;;;;;;2.67;1.05;;;;;;;24.40;52.01;98457.75;1766006;80;21114;-61
2022/08/11 11:35:14;;;;;;;4.25;1.10;;;;;;;24.65;50.87;98444.98;1743185;81;21121;-61
2022/08/11 11:37:44;;;;;;;1.75;1.12;;;;;;;24.88;49.59;98442.95;1768920;80;22514;-60
2022/08/11 11:40:15;;;;;;;3.02;1.00;;;;;;;24.77;47.72;98453.00;1768566;80;20936;-60
2022/08/11 11:42:46;;;;;;;4.22;1.30;;;;;;;24.60;48.33;98448.84;1764259;80;21019;-61
2022/08/11 11:45:19;;;;;;;2.77;1.30;;;;;;;24.47;49.62;98441.42;1751657;81;21498;-61
2022/08/11 11:47:54;;;;;;;3.40;1.50;;;;;;;24.35;50.47;98459.43;1749010;80;21368;-59
2022/08/11 11:50:35;;;;;;;3.85;1.25;;;;;;;24.14;50.53;98461.84;1777047;79;21180;-60
2022/08/11 11:53:08;;;;;;;2.62;1.17;;;;;;;23.88;51.41;98461.02;1809591;77;20891;-59
2022/08/11 11:55:35;;;;;;;2.42;1.30;;;;;;;23.61;51.28;98464.27;1827350;77;20861;-60
2022/08/11 12:03:47;;;;;;;4.47;1.02;;;;;;;23.07;53.62;98464.40;1808986;79;21147;-59
2022/08/11 12:06:18;;;;;;;3.20;1.30;;;;;;;22.93;53.92;98455.36;1814447;79;20881;-60
2022/08/11 12:08:48;;;;;;;3.45;1.10;;;;;;;22.91;54.31;98443.20;1806594;79;20880;-60
2022/08/11 12:14:04;;;;;;;3.05;1.25;;;;;;;22.97;54.16;98454.84;1806095;79;20974;-60
2022/08/11 12:16:30;;;;;;;1.67;0.93;;;;;;;23.06;54.05;98449.95;1805062;77;21870;-60
2022/08/11 12:19:00;;;;;;;3.62;0.98;;;;;;;23.15;54.07;98445.64;1838202;77;20989;-61
2022/08/11 12:21:28;;;;;;;5.10;1.42;;;;;;;23.22;53.55;98442.25;1854816;77;20852;-61
2022/08/11 12:29:31;;;;;;;3.70;1.20;;;;;;;23.20;54.55;98440.45;1814828;79;21114;-61
2022/08/11 12:31:50;;;;;;;2.67;1.22;;;;;;;23.34;55.20;98439.35;1814845;77;20967;-61
2022/08/11 12:34:17;;;;;;;2.52;1.20;;;;;;;23.37;54.57;98440.00;1815328;79;20998;-61
2022/08/11 12:37:02;;;;;;;3.12;1.42;;;;;;;23.32;54.53;98434.83;1815425;77;20912;-61
2022/08/11 12:45:29;;;;;;;1.52;1.22;;;;;;;24.08;52.08;98444.17;1852540;77;25551;-60
2022/08/11 12:53:59;;;;;;;2.95;1.12;;;;;;;23.66;52.41;98429.22;1815771;78;20958;-59
2022/08/11 13:04:59;;;;;;;;;;;;;;;25.71;48.86;98415.45;1774300;80;20990;-60
2022/08/11 13:07:29;;;;;;;6.47;1.12;;;;;;;26.10;48.14;98410.24;1780752;80;20143;-60
2022/08/11 13:09:56;;;;;;;3.37;1.22;;;;;;;26.39;46.98;98408.70;1805978;79;21059;-61
2022/08/11 13:15:11;;;;;;;3.80;1.35;;;;;;;27.05;45.54;98398.41;1846244;77;20870;-59
2022/08/11 13:17:37;;;;;;;3.17;1.20;;;;;;;27.38;44.90;98392.61;1808268;79;21384;-59
2022/08/11 13:20:07;;;;;;;3.25;1.20;;;;;;;27.65;43.79;98384.77;1815619;79;20908;-59
2022/08/11 13:22:34;;;;;;;5.25;1.20;;;;;;;27.51;43.55;98397.16;1815419;79;21214;-60
2022/08/11 13:25:02;;;;;;;5.35;1.52;;;;;;;27.08;42.78;98402.55;1815620;78;20880;-59
2022/08/11 13:27:30;;;;;;;2.40;1.10;;;;;;;26.44;43.96;98411.09;1814965;78;21448;-60
2022/08/11 13:32:42;;;;;;;;;;;;;;;25.45;45.08;98406.80;1818218;78;21470;-59
2022/08/11 13:35:10;;;;;;;1.70;1.10;;;;;;;24.97;46.18;98403.14;1815090;79;21124;-60
2022/08/11 13:37:37;;;;;;;1.98;1.37;;;;;;;24.67;47.62;98396.89;1814996;78;20986;-60
2022/08/11 13:40:06;;;;;;;2.75;1.10;;;;;;;24.46;48.14;98389.20;1829940;78;21006;-60
2022/08/11 13:42:32;;;;;;;1.82;1.20;;;;;;;24.30;49.22;98387.23;1813448;79;21530;-60
2022/08/11 13:44:59;;;;;;;5.58;1.30;;;;;;;24.13;48.99;98380.93;1813486;79;21048;-60
2022/08/11 13:47:26;;;;;;;1.50;1.15;;;;;;;24.03;49.11;98381.53;1814110;79;21493;-59
2022/08/11 13:49:53;;;;;;;2.72;1.20;;;;;;;23.98;49.59;98372.84;1814259;79;20955;-60
2022/08/11 13:52:19;;;;;;;2.70;1.15;;;;;;;23.97;49.62;98372.07;1815773;78;21619;-60
2022/08/11 13:54:47;;;;;;;1.57;0.93;;;;;;;24.00;49.57;98373.28;1817731;78;21057;-61
2022/08/11 13:57:14;;;;;;;2.42;1.10;;;;;;;24.36;48.67;98372.05;1815565;78;21047;-62
2022/08/11 13:59:41;;;;;;;3.05;1.05;;;;;;;24.73;48.89;98375.45;1815955;79;21015;-61
2022/08/11 14:02:16;;;;;;;2.33;1.22;;;;;;;24.92;47.74;98375.28;1815663;78;20881;-60
2022/08/11 14:04:48;;;;;;;7.08;1.32;;;;;;;24.88;47.67;98374.46;1816006;78;20904;-61
2022/08/11 14:07:22;;;;;;;4.20;1.40;;;;;;;24.72;48.26;98375.23;1815988;79;21463;-62
2022/08/11 14:09:50;;;;;;;5.35;1.17;;;;;;;24.55;48.35;98377.17;1816124;78;20896;-62
2022/08/11 14:15:18;;;;;;;1.62;1.17;;;;;;;24.20;48.18;98377.50;1815921;79;20896;-62
2022/08/11 14:17:47;;;;;;;1.98;1.20;;;;;;;24.08;50.08;98381.24;1777210;80;21456;-63
2022/08/11 14:20:15;;;;;;;1.35;1.10;;;;;;;24.09;49.49;98376.00;1777142;80;20963;-62
2022/08/11 14:22:42;;;;;;;2.42;1.02;;;;;;;24.25;49.65;98378.55;1756192;80;21482;-61
2022/08/11 14:25:09;;;;;;;1.60;1.15;;;;;;;24.42;50.30;98384.84;1777572;80;21335;-63
2022/08/11 14:27:36;;;;;;;5.37;1.20;;;;;;;24.82;49.26;98375.97;1777188;80;21408;-62
2022/08/11 14:30:04;;;;;;;2.70;1.15;;;;;;;25.79;46.70;98379.45;1777212;80;21379;-63
2022/08/11 14:32:30;;;;;;;1.57;1.12;;;;;;;25.79;46.70;98379.45;1731485;80;21009;-61
2022/08/11 14:34:57;;;;;;;3.25;1.20;;;;;;;26.17;45.83;98371.31;1777244;80;20916;-61
2022/08/11 14:37:24;;;;;;;1.55;1.07;;;;;;;26.54;45.57;98367.00;1776534;80;22125;-62
2022/08/11 14:39:55;;;;;;;1.47;1.00;;;;;;;26.95;44.47;98361.47;1776017;80;20963;-62
2022/08/11 14:48:03;;;;;;;3.05;1.15;;;;;;;27.78;42.08;98355.08;1774486;80;20836;-61
2022/08/11 14:50:32;;;;;;;5.15;1.40;;;;;;;27.97;42.26;98363.51;1777449;80;21135;-62
2022/08/11 14:53:05;;;;;;;2.75;1.12;;;;;;;28.22;41.87;98367.02;1776397;80;20861;-62
2022/08/11 14:58:23;;;;;;;3.70;1.20;;;;;;;28.92;41.21;98365.20;1776872;80;21427;-60
2022/08/11 15:00:53;;;;;;;2.00;1.25;;;;;;;28.80;41.32;98374.72;1776888;80;20911;-61
2022/08/11 15:03:19;;;;;;;2.37;1.20;;;;;;;28.24;41.92;98378.42;1816016;78;22745;-60
2022/08/11 15:05:52;;;;;;;5.37;1.55;;;;;;;27.63;43.25;98384.36;1815846;79;20980;-60
2022/08/11 15:08:19;;;;;;;2.05;1.22;;;;;;;26.96;44.80;98386.41;1815872;78;20960;-61
2022/08/11 15:10:46;;;;;;;2.75;1.30;;;;;;;26.35;46.49;98389.27;1815789;79;21455;-61
2022/08/11 15:13:19;;;;;;;2.10;1.32;;;;;;;25.80;47.67;98396.70;1815826;79;21498;-61
2022/08/11 15:18:30;;;;;;;2.75;1.50;;;;;;;24.73;49.71;98397.36;1815994;79;20908;-62
2022/08/11 15:37:37;;;;;;;2.42;1.50;;;;;;;22.91;56.76;98404.41;1816441;78;20932;-63
2022/08/11 15:46:21;;;;;;;3.00;1.50;;;;;;;24.48;53.44;98408.78;1810382;79;20939;-62
2022/08/11 15:48:53;;;;;;;2.02;1.15;;;;;;;24.85;52.33;98402.59;1810486;79;20865;-61
2022/08/11 15:51:31;;;;;;;1.50;1.27;;;;;;;25.06;51.37;98402.86;1810676;78;20916;-62
2022/08/11 15:53:58;;;;;;;2.45;1.57;;;;;;;25.07;50.41;98408.53;1771799;81;20949;-63
2022/08/11 15:56:26;;;;;;;3.02;1.52;;;;;;;24.95;50.99;98410.16;1771938;81;21115;-63
2022/08/11 16:04:26;;;;;;;4.15;1.40;;;;;;;24.36;51.61;98411.75;1771968;81;20955;-63
2022/08/11 16:07:10;;;;;;;2.10;1.45;;;;;;;24.10;51.92;98411.76;1771874;81;20924;-61
2022/08/11 16:09:50;;;;;;;1.60;1.40;;;;;;;23.83;52.57;98412.09;1771895;80;21115;-62
2022/08/11 16:12:21;;;;;;;2.52;1.35;;;;;;;23.57;53.78;98416.95;1771816;81;20892;-61
2022/08/11 16:17:43;;;;;;;2.52;1.70;;;;;;;23.08;55.43;98423.05;1771931;81;20923;-60
2022/08/11 16:20:11;;;;;;;2.47;1.70;;;;;;;22.83;56.41;98421.78;1772435;81;20896;-61
2022/08/11 16:22:46;;;;;;;3.37;1.72;;;;;;;22.65;57.51;98426.67;1771948;81;21221;-61
2022/08/11 16:25:21;;;;;;;2.40;1.70;;;;;;;22.44;58.28;98421.53;1772103;80;20919;-61
2022/08/11 16:27:58;;;;;;;;;;;;;;;22.27;59.07;98427.38;1774523;81;20872;-62
2022/08/11 16:30:27;;;;;;;3.45;1.80;;;;;;;22.13;59.73;98435.24;1757599;81;20069;-62
2022/08/11 16:32:53;;;;;;;2.80;1.90;;;;;;;21.96;60.47;98436.98;1757497;81;21081;-61
2022/08/11 16:40:56;;;;;;;3.80;2.30;;;;;;;21.55;62.23;98439.06;1755160;81;20886;-62
2022/08/11 16:48:45;;;;;;;4.33;1.90;;;;;;;21.16;63.90;98444.07;1762424;81;21116;-62
2022/08/11 16:51:12;;;;;;;6.20;1.55;;;;;;;21.07;64.33;98444.80;1765310;81;20889;-62
2022/08/11 16:53:41;;;;;;;3.17;1.85;;;;;;;20.96;64.61;98443.70;1765220;81;21421;-59
2022/08/11 16:56:07;;;;;;;3.72;1.60;;;;;;;20.88;64.94;98448.70;1764939;81;21413;-59
2022/08/11 17:01:25;;;;;;;7.58;1.90;;;;;;;20.70;65.69;98447.42;1741234;81;21132;-60
2022/08/11 17:16:05;;;;;;;2.40;2.20;;;;;;;20.51;68.02;98457.56;1810513;79;21219;-61
2022/08/11 17:17:38;;;;;;;4.78;2.00;;;;;;;20.50;68.45;98457.88;1817961;78;20923;-61
2022/08/11 17:20:08;;;;;;;3.45;2.27;;;;;;;20.45;68.83;98463.80;1815849;79;20897;-62
2022/08/11 17:49:00;;;;;;;2.58;2.37;;;;;;;19.96;73.39;98464.95;1815734;79;20889;-60
2022/08/11 17:59:51;;;;;;;3.75;2.70;;;;;;;19.74;75.40;98466.17;1815982;79;20956;-61
2022/08/11 18:05:25;;;;;;;4.30;3.05;;;;;;;19.68;76.22;98471.61;1815867;79;20920;-60
